Time;durP1;ratioP1;P1;durP2;ratioP2;P2;SDS_P1;SDS_P2;PMS_P1;PMS_P2;Temp;Humidity;BMP_temperature;BMP_pressure;BME280_temperature;BME280_humidity;BME280_pressure;Samples;Min_cycle;Max_cycle;Signal;HPM_P1;HPM_P2
2023/04/08 00:00:18;;;;;;;31.50;7.35;;;9.30;99.90;;;;;;4038459;29;20173;-94
2023/04/08 00:02:18;;;;;;;29.98;7.57;;;9.40;99.90;;;;;;4053804;29;20184;-93
2023/04/08 00:04:19;;;;;;;18.80;6.55;;;9.30;99.90;;;;;;4053838;29;20539;-95
2023/04/08 00:06:20;;;;;;;27.77;6.85;;;9.20;99.90;;;;;;4053777;29;20212;-93
2023/04/08 00:08:21;;;;;;;19.83;6.97;;;9.20;99.90;;;;;;4038469;29;20233;-93
2023/04/08 00:10:21;;;;;;;21.52;7.00;;;9.30;99.90;;;;;;4038295;29;20326;-94
2023/04/08 00:12:22;;;;;;;18.60;7.28;;;9.50;99.90;;;;;;4038409;29;20188;-95
2023/04/08 00:14:23;;;;;;;22.35;7.35;;;9.70;99.90;;;;;;4038008;29;20228;-95
2023/04/08 00:16:24;;;;;;;33.42;7.72;;;9.60;99.90;;;;;;4038320;29;20318;-94
2023/04/08 00:18:25;;;;;;;22.08;7.25;;;9.60;99.90;;;;;;4038155;29;20217;-94
2023/04/08 00:20:26;;;;;;;23.33;7.50;;;9.60;99.90;;;;;;4038189;29;20178;-93
2023/04/08 00:22:27;;;;;;;23.20;7.25;;;9.70;99.90;;;;;;4037733;29;20277;-94
2023/04/08 00:24:28;;;;;;;26.77;7.63;;;9.70;99.90;;;;;;4038217;29;20203;-95
2023/04/08 00:26:28;;;;;;;29.92;7.43;;;9.70;99.90;;;;;;4037956;29;20204;-95
2023/04/08 00:28:29;;;;;;;20.20;7.00;;;10.00;99.90;;;;;;4069077;29;20188;-95
2023/04/08 00:30:30;;;;;;;23.63;7.03;;;9.80;99.90;;;;;;4053229;29;20177;-94
2023/04/08 00:32:31;;;;;;;26.95;7.47;;;9.80;99.90;;;;;;4037854;29;20277;-95
2023/04/08 00:34:32;;;;;;;29.35;7.90;;;9.50;99.90;;;;;;4038255;29;20539;-94
2023/04/08 00:36:35;;;;;;;21.52;7.18;;;9.60;99.90;;;;;;4053416;29;20333;-96
2023/04/08 00:38:35;;;;;;;24.88;6.75;;;9.50;99.90;;;;;;4037905;29;20217;-94
2023/04/08 00:40:36;;;;;;;31.17;7.50;;;9.30;99.90;;;;;;4052998;29;20261;-94
2023/04/08 00:42:37;;;;;;;28.50;7.50;;;9.30;99.90;;;;;;4052999;29;20682;-95
2023/04/08 00:44:39;;;;;;;23.05;7.18;;;9.20;99.90;;;;;;4038024;29;20205;-93
2023/04/08 00:46:40;;;;;;;22.05;7.15;;;9.30;99.90;;;;;;4053524;29;20229;-93
2023/04/08 00:48:40;;;;;;;23.20;8.55;;;9.60;99.90;;;;;;4056860;29;20228;-93
2023/04/08 00:50:45;;;;;;;25.10;7.93;;;9.50;99.90;;;;;;4048167;29;20169;-92
2023/04/08 00:52:46;;;;;;;25.05;8.32;;;9.50;99.90;;;;;;4073389;29;20252;-95
2023/04/08 00:54:47;;;;;;;27.60;8.05;;;9.50;99.90;;;;;;4053542;29;20228;-93
2023/04/08 00:56:48;;;;;;;23.70;7.68;;;9.30;99.90;;;;;;4053107;29;20666;-93
2023/04/08 00:58:52;;;;;;;26.30;8.37;;;9.10;99.90;;;;;;4053025;29;20183;-95
2023/04/08 01:01:09;;;;;;;21.75;7.63;;;9.00;99.90;;;;;;4068662;29;20176;-94
2023/04/08 01:03:19;;;;;;;23.77;8.10;;;9.20;99.90;;;;;;4068452;29;20204;-94
2023/04/08 01:05:26;;;;;;;22.25;7.75;;;9.50;99.90;;;;;;4068717;29;20172;-95
2023/04/08 01:07:40;;;;;;;25.08;8.32;;;9.70;99.90;;;;;;4068632;29;20184;-94
2023/04/08 01:09:50;;;;;;;23.70;9.05;;;10.00;99.90;;;;;;4068504;29;20191;-94
2023/04/08 01:11:52;;;;;;;23.65;8.50;;;10.30;99.90;;;;;;4068408;29;20211;-93
2023/04/08 01:13:54;;;;;;;22.60;8.60;;;10.40;99.90;;;;;;4068436;29;20239;-93
2023/04/08 01:15:55;;;;;;;23.48;8.23;;;10.30;99.90;;;;;;4068548;29;20344;-95
2023/04/08 01:17:57;;;;;;;24.58;8.13;;;10.10;99.90;;;;;;4037368;29;20217;-93
2023/04/08 01:20:00;;;;;;;24.52;7.75;;;10.00;99.90;;;;;;4053078;29;20180;-93
2023/04/08 01:22:14;;;;;;;23.50;8.20;;;9.70;99.90;;;;;;4052943;29;20228;-94
2023/04/08 01:24:25;;;;;;;26.58;8.32;;;9.90;99.90;;;;;;4052836;29;20661;-95
2023/04/08 01:26:27;;;;;;;30.00;8.80;;;10.20;99.90;;;;;;4037694;29;20197;-95
2023/04/08 01:28:30;;;;;;;17.73;7.40;;;10.00;99.90;;;;;;4037726;29;20189;-95
2023/04/08 01:30:34;;;;;;;28.52;8.40;;;10.10;99.90;;;;;;4052965;29;20182;-93
2023/04/08 01:32:36;;;;;;;22.20;8.60;;;10.10;99.90;;;;;;4068453;29;20196;-93
2023/04/08 01:34:40;;;;;;;19.20;8.45;;;10.20;99.90;;;;;;4071626;29;20177;-94
2023/04/08 01:36:44;;;;;;;30.55;8.07;;;10.10;99.90;;;;;;4071747;29;20176;-96
2023/04/08 01:38:48;;;;;;;29.45;9.05;;;10.20;99.90;;;;;;4071595;29;20196;-93
2023/04/08 01:40:51;;;;;;;20.88;7.93;;;10.10;99.90;;;;;;4071591;29;20176;-94
2023/04/08 01:42:55;;;;;;;24.95;8.38;;;10.20;99.90;;;;;;4071341;29;20198;-94
2023/04/08 01:44:59;;;;;;;25.70;8.45;;;10.20;99.90;;;;;;4071211;29;20180;-95
2023/04/08 01:47:01;;;;;;;22.25;7.45;;;10.10;99.90;;;;;;4071335;29;20275;-94
2023/04/08 01:49:05;;;;;;;22.45;7.82;;;10.20;99.90;;;;;;4071431;29;20188;-95
2023/04/08 01:51:06;;;;;;;27.17;7.78;;;10.20;99.90;;;;;;4071378;29;20184;-96
2023/04/08 01:53:10;;;;;;;18.70;7.47;;;10.20;99.90;;;;;;4071516;29;20188;-95
2023/04/08 01:55:12;;;;;;;20.00;7.63;;;10.20;99.90;;;;;;4071365;29;20307;-94
2023/04/08 01:57:26;;;;;;;21.13;7.68;;;10.20;99.90;;;;;;4040299;29;20209;-93
2023/04/08 01:59:31;;;;;;;30.80;8.18;;;10.20;99.90;;;;;;4055958;29;20185;-95
2023/04/08 02:01:34;;;;;;;18.88;8.25;;;10.30;99.90;;;;;;4070942;29;20196;-94
2023/04/08 02:03:36;;;;;;;18.35;7.80;;;10.30;99.90;;;;;;4070896;29;20203;-94
2023/04/08 02:05:38;;;;;;;27.52;8.13;;;10.40;99.90;;;;;;4071290;29;20219;-95
2023/04/08 02:07:38;;;;;;;25.92;8.15;;;10.40;99.90;;;;;;4071224;29;20315;-94
2023/04/08 02:09:39;;;;;;;20.42;8.13;;;10.30;99.90;;;;;;4040054;29;20639;-95
2023/04/08 02:11:40;;;;;;;23.95;7.70;;;10.30;99.90;;;;;;4055427;29;20173;-95
2023/04/08 02:13:41;;;;;;;19.50;7.97;;;10.40;99.90;;;;;;4055198;29;20230;-95
2023/04/08 02:15:47;;;;;;;19.13;7.72;;;10.40;99.90;;;;;;4055623;29;20291;-94
2023/04/08 02:17:54;;;;;;;21.83;8.52;;;10.20;99.90;;;;;;4070996;29;20204;-94
2023/04/08 02:20:09;;;;;;;21.13;7.60;;;10.20;99.90;;;;;;4070674;29;20240;-95
2023/04/08 02:22:24;;;;;;;19.35;7.53;;;10.20;99.90;;;;;;4070660;29;20677;-93
2023/04/08 02:24:26;;;;;;;24.30;7.25;;;10.10;99.90;;;;;;4070764;29;20649;-94
2023/04/08 02:26:27;;;;;;;16.85;7.47;;;10.10;99.90;;;;;;4070921;29;20176;-94
2023/04/08 02:28:53;;;;;;;20.83;7.72;;;9.90;99.90;;;;;;4039808;29;20177;-93
2023/04/08 02:30:56;;;;;;;22.90;7.47;;;9.80;99.90;;;;;;4070728;29;20372;-95
2023/04/08 02:33:00;;;;;;;17.42;7.65;;;9.80;99.90;;;;;;4070637;29;20240;-94
2023/04/08 02:35:02;;;;;;;15.55;6.70;;;9.70;99.90;;;;;;4070749;29;20176;-94
2023/04/08 02:37:03;;;;;;;19.90;6.72;;;9.70;99.90;;;;;;4070678;29;20176;-93
2023/04/08 02:39:04;;;;;;;18.27;7.25;;;9.70;99.90;;;;;;4039586;29;20632;-94
2023/04/08 02:41:05;;;;;;;18.60;7.03;;;9.70;99.90;;;;;;4055103;29;20192;-95
2023/04/08 02:43:06;;;;;;;18.70;6.82;;;9.80;99.90;;;;;;4039406;29;20288;-94
2023/04/08 02:45:07;;;;;;;21.70;6.90;;;9.90;99.90;;;;;;4039144;29;20551;-93
2023/04/08 02:47:08;;;;;;;20.92;6.60;;;10.00;99.90;;;;;;4039712;29;20186;-93
2023/04/08 02:49:09;;;;;;;18.40;6.22;;;10.10;99.90;;;;;;4039979;29;20193;-94
2023/04/08 02:51:10;;;;;;;19.75;6.72;;;10.10;99.90;;;;;;4039472;29;20182;-94
2023/04/08 02:53:11;;;;;;;23.55;6.95;;;10.20;99.90;;;;;;4039786;29;20686;-93
2023/04/08 02:55:12;;;;;;;17.50;6.80;;;10.10;99.90;;;;;;4039575;29;20181;-94
2023/04/08 02:57:13;;;;;;;18.92;7.80;;;10.10;99.90;;;;;;4039642;29;20205;-94
2023/04/08 02:59:13;;;;;;;21.98;6.70;;;10.20;99.90;;;;;;4039403;29;20211;-95
2023/04/08 03:01:15;;;;;;;24.60;6.75;;;10.20;99.90;;;;;;4054979;29;20177;-94
2023/04/08 03:03:16;;;;;;;22.38;7.00;;;10.10;99.90;;;;;;4054973;29;20204;-94
2023/04/08 03:05:16;;;;;;;17.13;7.35;;;10.20;99.90;;;;;;4039567;29;20205;-94
2023/04/08 03:07:17;;;;;;;17.40;6.22;;;10.10;99.90;;;;;;4039228;29;20177;-93
2023/04/08 03:09:18;;;;;;;19.67;6.70;;;9.70;99.90;;;;;;4054804;29;20674;-95
2023/04/08 03:11:20;;;;;;;19.38;6.65;;;9.60;99.90;;;;;;4039246;29;20281;-93
2023/04/08 03:13:21;;;;;;;20.10;6.88;;;9.50;99.90;;;;;;4054335;29;20249;-95
2023/04/08 03:15:21;;;;;;;16.30;6.53;;;9.40;99.90;;;;;;4054788;29;20625;-93
2023/04/08 03:17:22;;;;;;;18.45;6.20;;;9.50;99.90;;;;;;4057619;29;20209;-95
2023/04/08 03:19:23;;;;;;;25.80;7.18;;;9.60;99.90;;;;;;4079874;29;20195;-93
2023/04/08 03:21:24;;;;;;;24.48;6.90;;;9.60;99.90;;;;;;4074888;29;20177;-94
2023/04/08 03:23:24;;;;;;;13.55;6.35;;;9.30;99.90;;;;;;4055655;29;20227;-93
2023/04/08 03:25:26;;;;;;;18.55;6.65;;;9.20;99.90;;;;;;4054517;29;20209;-93
2023/04/08 03:27:27;;;;;;;18.80;6.68;;;9.10;99.90;;;;;;4054300;29;20192;-94
2023/04/08 03:29:28;;;;;;;20.05;6.95;;;9.20;99.90;;;;;;4054542;29;20213;-94
2023/04/08 03:31:29;;;;;;;18.15;6.95;;;9.30;99.90;;;;;;4054358;29;20176;-94
2023/04/08 03:33:29;;;;;;;15.90;6.53;;;9.20;99.90;;;;;;4038678;29;20209;-93
2023/04/08 03:35:31;;;;;;;13.98;6.85;;;9.10;99.90;;;;;;4054307;29;20173;-94
2023/04/08 03:37:32;;;;;;;22.13;7.45;;;8.90;99.90;;;;;;4054050;29;20268;-93
2023/04/08 03:39:33;;;;;;;21.42;7.45;;;9.10;99.90;;;;;;4054087;29;20173;-95
2023/04/08 03:41:33;;;;;;;17.83;7.05;;;9.20;99.90;;;;;;4054126;29;20217;-94
2023/04/08 03:43:34;;;;;;;19.30;7.45;;;9.20;99.90;;;;;;4053831;29;20204;-93
2023/04/08 03:45:35;;;;;;;12.55;6.10;;;9.10;99.90;;;;;;4038704;29;20741;-95
2023/04/08 03:47:35;;;;;;;17.98;7.05;;;9.30;99.90;;;;;;4054023;29;20179;-93
2023/04/08 03:49:36;;;;;;;19.50;7.47;;;9.40;99.90;;;;;;4069654;29;20553;-93
2023/04/08 03:51:37;;;;;;;23.23;8.07;;;9.40;99.90;;;;;;4054104;29;20705;-93
2023/04/08 03:53:38;;;;;;;20.98;8.13;;;9.40;99.90;;;;;;4053893;29;20685;-93
2023/04/08 03:55:39;;;;;;;16.38;6.78;;;9.30;99.90;;;;;;4037928;29;20189;-93
2023/04/08 03:57:40;;;;;;;21.83;8.00;;;9.30;99.90;;;;;;4038326;29;20289;-93
2023/04/08 03:59:40;;;;;;;15.90;7.32;;;9.40;99.90;;;;;;4054194;29;20244;-93
2023/04/08 04:01:41;;;;;;;19.05;7.82;;;9.40;99.90;;;;;;4054040;29;20185;-94
2023/04/08 04:03:42;;;;;;;22.08;7.35;;;9.30;99.90;;;;;;4038782;29;20248;-93
2023/04/08 04:05:43;;;;;;;16.02;7.90;;;9.20;99.90;;;;;;4054226;29;20646;-95
2023/04/08 04:07:43;;;;;;;26.67;7.68;;;9.20;99.90;;;;;;4053784;29;20185;-95
2023/04/08 04:09:44;;;;;;;18.55;8.23;;;9.30;99.90;;;;;;4053831;29;20180;-94
2023/04/08 04:11:45;;;;;;;19.77;8.43;;;9.30;99.90;;;;;;4038393;29;20322;-95
2023/04/08 04:13:47;;;;;;;16.35;7.75;;;9.40;99.90;;;;;;4037842;29;20202;-93
2023/04/08 04:15:47;;;;;;;15.27;7.28;;;9.50;99.90;;;;;;4053561;29;20634;-93
2023/04/08 04:17:49;;;;;;;20.08;8.95;;;9.60;99.90;;;;;;4053455;29;20220;-93
2023/04/08 04:19:50;;;;;;;20.02;8.18;;;9.70;99.90;;;;;;4069172;29;20187;-94
2023/04/08 04:21:51;;;;;;;21.95;8.57;;;9.70;99.90;;;;;;4038140;29;20177;-93
2023/04/08 04:23:51;;;;;;;21.48;8.10;;;9.70;99.90;;;;;;4053414;29;20193;-94
2023/04/08 04:25:52;;;;;;;20.58;8.23;;;9.70;99.90;;;;;;4053504;29;20185;-94
2023/04/08 04:27:53;;;;;;;17.48;7.90;;;9.80;99.90;;;;;;4053556;29;20180;-93
2023/04/08 04:29:53;;;;;;;17.10;8.30;;;9.90;99.90;;;;;;4053324;29;20313;-94
2023/04/08 04:31:54;;;;;;;17.55;8.05;;;9.90;99.90;;;;;;4053215;29;20169;-94
2023/04/08 04:33:55;;;;;;;18.42;8.45;;;10.00;99.90;;;;;;4037864;29;20213;-94
2023/04/08 04:35:56;;;;;;;23.15;8.90;;;9.90;99.90;;;;;;4053213;29;20181;-93
2023/04/08 04:37:58;;;;;;;33.50;8.85;;;10.00;99.90;;;;;;4037436;29;20221;-95
2023/04/08 04:39:58;;;;;;;23.20;8.77;;;9.90;99.90;;;;;;4053155;29;20177;-93
2023/04/08 04:41:59;;;;;;;19.13;8.93;;;9.80;99.90;;;;;;4053310;29;20280;-92
2023/04/08 04:44:00;;;;;;;24.13;8.73;;;9.70;99.90;;;;;;4037637;29;20298;-94
2023/04/08 04:46:02;;;;;;;20.77;9.20;;;9.70;99.90;;;;;;4053391;29;20181;-93
2023/04/08 04:48:03;;;;;;;28.40;9.82;;;9.60;99.90;;;;;;4053198;29;20203;-92
2023/04/08 04:50:05;;;;;;;19.42;9.38;;;9.60;99.90;;;;;;4053248;29;20287;-94
2023/04/08 04:52:06;;;;;;;21.17;10.00;;;9.60;99.90;;;;;;4053118;29;20172;-93
2023/04/08 04:54:07;;;;;;;20.00;9.40;;;9.60;99.90;;;;;;4038020;29;20205;-95
2023/04/08 04:56:07;;;;;;;33.28;10.38;;;9.60;99.90;;;;;;4053176;29;20681;-94
2023/04/08 04:58:08;;;;;;;18.92;9.90;;;9.70;99.90;;;;;;4052974;29;20217;-94
2023/04/08 05:00:09;;;;;;;25.20;9.95;;;9.70;99.90;;;;;;4037534;29;20169;-92
2023/04/08 05:02:10;;;;;;;27.55;10.10;;;9.70;99.90;;;;;;4052976;29;20189;-93
2023/04/08 05:04:11;;;;;;;23.45;9.80;;;9.60;99.90;;;;;;4053067;29;20239;-92
2023/04/08 05:06:12;;;;;;;18.02;9.63;;;9.80;99.90;;;;;;4037674;29;20639;-92
2023/04/08 05:08:12;;;;;;;24.52;10.50;;;9.90;99.90;;;;;;4052015;29;20184;-92
2023/04/08 05:10:13;;;;;;;23.58;10.40;;;9.90;99.90;;;;;;4037692;29;20654;-92
2023/04/08 05:12:14;;;;;;;23.45;10.57;;;9.90;99.90;;;;;;4052919;29;20209;-92
2023/04/08 05:14:14;;;;;;;23.50;10.35;;;9.90;99.90;;;;;;4037530;29;20186;-91
2023/04/08 05:16:15;;;;;;;27.58;10.57;;;10.00;99.90;;;;;;4053071;29;20181;-91
2023/04/08 05:18:16;;;;;;;27.80;10.73;;;10.00;99.90;;;;;;4037579;29;20224;-91
2023/04/08 05:20:17;;;;;;;25.00;10.35;;;10.10;99.90;;;;;;4053005;29;20173;-93
2023/04/08 05:22:18;;;;;;;24.45;11.32;;;10.10;99.90;;;;;;4052779;29;20204;-91
2023/04/08 05:24:18;;;;;;;30.20;11.60;;;10.10;99.90;;;;;;4037564;29;20188;-92
2023/04/08 05:26:20;;;;;;;28.20;11.63;;;10.10;99.90;;;;;;4037375;29;20188;-91
2023/04/08 05:28:21;;;;;;;28.38;11.48;;;10.00;99.90;;;;;;4052834;29;20200;-91
2023/04/08 05:30:22;;;;;;;28.35;12.02;;;9.90;99.90;;;;;;4052725;29;20205;-91
2023/04/08 05:32:22;;;;;;;24.70;10.95;;;9.90;99.90;;;;;;4037204;29;20540;-93
2023/04/08 05:34:23;;;;;;;28.95;12.65;;;9.90;99.90;;;;;;4052697;29;20188;-92
2023/04/08 05:36:25;;;;;;;25.45;11.30;;;10.00;99.90;;;;;;4052897;29;20191;-92
2023/04/08 05:38:25;;;;;;;34.20;11.38;;;9.90;99.90;;;;;;4037149;29;20209;-91
2023/04/08 05:40:26;;;;;;;25.27;11.85;;;10.00;99.90;;;;;;4052927;29;20177;-93
2023/04/08 05:42:27;;;;;;;32.95;12.05;;;10.00;99.90;;;;;;4052696;29;20720;-91
2023/04/08 05:44:28;;;;;;;26.67;11.85;;;10.20;99.90;;;;;;4037316;29;20531;-92
2023/04/08 05:46:28;;;;;;;28.50;12.30;;;10.10;99.90;;;;;;4037091;29;20184;-92
2023/04/08 05:48:29;;;;;;;29.60;12.43;;;10.00;99.90;;;;;;4057055;29;20192;-92
2023/04/08 05:50:30;;;;;;;23.23;13.10;;;10.00;99.90;;;;;;4053910;29;20232;-91
2023/04/08 05:52:30;;;;;;;26.15;12.65;;;10.00;99.90;;;;;;4039499;29;20643;-91
2023/04/08 05:54:31;;;;;;;37.55;14.15;;;10.10;99.90;;;;;;4037792;29;20172;-91
2023/04/08 05:56:33;;;;;;;26.23;12.95;;;10.20;99.90;;;;;;4037049;29;20224;-90
2023/04/08 05:58:34;;;;;;;27.10;12.90;;;10.20;99.90;;;;;;4037133;29;20249;-93
2023/04/08 06:00:35;;;;;;;33.78;13.23;;;10.30;99.90;;;;;;4052831;29;20261;-92
2023/04/08 06:02:36;;;;;;;27.95;12.52;;;10.30;99.90;;;;;;4037222;29;20205;-91
2023/04/08 06:04:37;;;;;;;31.42;13.90;;;10.30;99.90;;;;;;4037310;29;20257;-92
2023/04/08 06:06:38;;;;;;;29.38;14.63;;;10.30;99.90;;;;;;4052885;29;20181;-91
2023/04/08 06:08:39;;;;;;;34.88;13.82;;;10.20;99.90;;;;;;4052757;29;20223;-92
2023/04/08 06:10:47;;;;;;;33.08;13.90;;;10.10;99.90;;;;;;4037404;29;20571;-92
2023/04/08 06:12:48;;;;;;;38.10;14.55;;;10.20;99.90;;;;;;4037154;29;20189;-91
2023/04/08 06:14:53;;;;;;;32.45;14.13;;;10.20;99.90;;;;;;4037323;29;20230;-91
2023/04/08 06:16:55;;;;;;;27.75;13.63;;;10.30;99.90;;;;;;4037201;29;20524;-92
2023/04/08 06:18:56;;;;;;;29.75;14.13;;;10.40;99.90;;;;;;4037537;29;20295;-92
2023/04/08 06:20:58;;;;;;;29.25;14.60;;;10.40;99.90;;;;;;4055469;29;20173;-91
2023/04/08 06:22:59;;;;;;;32.95;15.95;;;10.30;99.90;;;;;;4039617;29;20207;-92
2023/04/08 06:24:59;;;;;;;33.22;15.05;;;10.30;99.90;;;;;;4039861;29;20651;-92
2023/04/08 06:27:00;;;;;;;33.22;14.63;;;10.30;99.90;;;;;;4039725;29;20186;-91
2023/04/08 06:29:02;;;;;;;38.42;14.60;;;10.30;99.90;;;;;;4039705;29;20278;-91
2023/04/08 06:31:02;;;;;;;41.03;14.63;;;10.10;99.90;;;;;;4055384;29;20180;-93
2023/04/08 06:33:03;;;;;;;40.92;14.27;;;10.00;99.90;;;;;;4055159;29;20257;-91
2023/04/08 06:35:04;;;;;;;35.67;14.82;;;10.00;99.90;;;;;;4055120;29;20208;-93
2023/04/08 06:37:05;;;;;;;36.58;14.27;;;10.00;99.90;;;;;;4070595;29;20211;-92
2023/04/08 06:39:06;;;;;;;29.33;13.55;;;10.00;99.90;;;;;;4055246;29;20180;-92
2023/04/08 06:41:07;;;;;;;34.55;15.20;;;10.20;99.90;;;;;;4055007;29;20269;-92
2023/04/08 06:43:08;;;;;;;37.55;15.63;;;10.30;99.90;;;;;;4071106;29;20813;-92
2023/04/08 06:45:13;;;;;;;46.97;16.00;;;10.40;99.90;;;;;;4055401;29;20253;-91
2023/04/08 06:47:15;;;;;;;34.35;16.02;;;10.60;99.90;;;;;;4039594;29;20169;-91
2023/04/08 06:49:16;;;;;;;40.85;15.95;;;10.40;99.90;;;;;;4039508;29;20190;-93
2023/04/08 06:51:17;;;;;;;37.08;15.07;;;10.40;99.90;;;;;;4039400;29;20173;-91
2023/04/08 06:53:18;;;;;;;46.33;15.75;;;10.40;99.90;;;;;;4070547;29;20228;-93
2023/04/08 06:55:18;;;;;;;40.33;15.82;;;10.50;99.90;;;;;;4039696;29;20182;-91
2023/04/08 06:57:19;;;;;;;41.47;16.30;;;10.60;99.90;;;;;;4054973;29;20217;-90
2023/04/08 06:59:20;;;;;;;38.05;15.27;;;10.70;99.90;;;;;;4054682;29;20177;-92
2023/04/08 07:01:21;;;;;;;41.33;16.10;;;10.60;99.90;;;;;;4054782;29;20244;-92
2023/04/08 07:03:22;;;;;;;35.83;16.05;;;10.40;99.90;;;;;;4054649;29;20204;-91
2023/04/08 07:05:23;;;;;;;36.03;16.13;;;10.50;99.90;;;;;;4054801;29;20177;-90
2023/04/08 07:07:23;;;;;;;37.22;16.02;;;10.60;99.90;;;;;;4054750;29;20177;-91
2023/04/08 07:09:24;;;;;;;33.55;15.18;;;10.60;99.90;;;;;;4054731;29;20188;-91
2023/04/08 07:11:25;;;;;;;34.58;15.15;;;10.60;99.90;;;;;;4054753;29;20252;-90
2023/04/08 07:13:26;;;;;;;34.85;15.60;;;10.50;99.90;;;;;;4039211;29;20198;-90
2023/04/08 07:15:27;;;;;;;38.20;15.75;;;10.80;99.90;;;;;;4054463;29;20181;-90
2023/04/08 07:17:27;;;;;;;38.33;15.50;;;10.80;99.90;;;;;;4054389;29;20219;-90
2023/04/08 07:19:28;;;;;;;34.95;15.88;;;10.50;99.90;;;;;;4038948;29;20188;-91
2023/04/08 07:21:30;;;;;;;35.67;15.70;;;10.20;99.90;;;;;;4039112;29;20183;-91
2023/04/08 07:23:31;;;;;;;32.58;15.88;;;10.30;99.90;;;;;;4039080;29;20373;-89
2023/04/08 07:25:34;;;;;;;31.05;15.40;;;10.20;99.90;;;;;;4054490;29;20237;-93
2023/04/08 07:27:35;;;;;;;38.20;16.58;;;10.30;99.90;;;;;;4070013;29;20569;-93
2023/04/08 07:29:35;;;;;;;39.35;16.38;;;10.20;99.90;;;;;;4054236;29;20240;-90
2023/04/08 07:31:36;;;;;;;36.70;15.93;;;10.40;99.90;;;;;;4053389;29;20189;-93
2023/04/08 07:33:37;;;;;;;35.15;15.73;;;10.80;99.90;;;;;;4053957;29;20193;-90
2023/04/08 07:35:37;;;;;;;29.02;15.63;;;10.70;99.90;;;;;;4038889;29;20183;-91
2023/04/08 07:37:38;;;;;;;30.23;15.48;;;10.90;99.90;;;;;;4054262;29;20209;-92
2023/04/08 07:39:39;;;;;;;32.60;15.57;;;11.50;99.90;;;;;;4069876;29;20271;-90
2023/04/08 07:41:40;;;;;;;40.10;17.98;;;11.50;99.90;;;;;;4054184;29;20240;-91
2023/04/08 07:43:40;;;;;;;29.23;13.95;;;11.20;99.90;;;;;;4053904;29;20650;-90
2023/04/08 07:45:41;;;;;;;26.67;13.63;;;11.40;99.90;;;;;;4038758;29;20668;-93
2023/04/08 07:47:42;;;;;;;24.33;13.35;;;11.50;99.90;;;;;;4053712;29;20206;-93
2023/04/08 07:49:45;;;;;;;31.50;14.07;;;11.00;99.90;;;;;;4038421;29;20197;-91
2023/04/08 07:51:46;;;;;;;25.45;13.52;;;11.20;99.90;;;;;;4053844;29;20222;-91
2023/04/08 07:53:47;;;;;;;33.58;14.30;;;11.30;99.90;;;;;;4053872;29;20332;-91
2023/04/08 07:55:47;;;;;;;27.92;14.25;;;11.70;99.90;;;;;;4054060;29;20472;-91
2023/04/08 07:57:48;;;;;;;25.92;14.00;;;12.20;99.90;;;;;;4053794;29;20220;-92
2023/04/08 07:59:49;;;;;;;27.35;14.00;;;12.20;99.90;;;;;;4053783;29;20195;-92
2023/04/08 08:01:50;;;;;;;27.27;13.90;;;11.90;99.90;;;;;;4053991;29;20277;-91
2023/04/08 08:03:51;;;;;;;31.40;14.63;;;11.70;99.90;;;;;;4038311;29;20266;-93
2023/04/08 08:05:52;;;;;;;30.48;13.75;;;11.50;99.90;;;;;;4038262;29;20202;-92
2023/04/08 08:07:52;;;;;;;27.80;13.90;;;11.30;99.90;;;;;;4038351;29;20185;-90
2023/04/08 08:09:53;;;;;;;23.23;13.55;;;11.50;99.90;;;;;;4069285;29;20169;-93
2023/04/08 08:11:54;;;;;;;22.65;13.20;;;11.10;99.90;;;;;;4038556;29;20185;-92
2023/04/08 08:13:55;;;;;;;25.20;13.95;;;11.20;99.90;;;;;;4069497;29;20188;-92
2023/04/08 08:15:56;;;;;;;27.65;13.70;;;11.50;99.90;;;;;;4038214;29;20188;-91
2023/04/08 08:17:57;;;;;;;26.60;13.00;;;11.50;99.90;;;;;;4038426;29;20209;-92
2023/04/08 08:19:58;;;;;;;23.23;12.95;;;11.50;99.90;;;;;;4049035;29;20197;-93
2023/04/08 08:21:59;;;;;;;26.52;13.60;;;12.00;99.90;;;;;;4068918;29;20187;-92
2023/04/08 08:24:00;;;;;;;23.77;12.88;;;11.80;99.90;;;;;;4053965;29;20216;-90
2023/04/08 08:26:01;;;;;;;18.50;12.10;;;11.90;99.90;;;;;;4053639;29;20181;-91
2023/04/08 08:28:02;;;;;;;22.65;12.70;;;12.40;99.90;;;;;;4038050;29;20269;-92
2023/04/08 08:30:03;;;;;;;20.23;11.98;;;11.90;99.90;;;;;;4053559;29;20180;-90
2023/04/08 08:32:04;;;;;;;23.45;11.68;;;11.70;99.90;;;;;;4053588;29;20192;-92
2023/04/08 08:34:04;;;;;;;19.95;9.52;;;12.30;99.90;;;;;;4053336;29;20207;-91
2023/04/08 08:36:06;;;;;;;20.75;9.85;;;12.70;99.90;;;;;;4038031;29;20182;-94
2023/04/08 08:38:06;;;;;;;20.92;9.82;;;13.00;99.90;;;;;;4037884;29;20308;-91
2023/04/08 08:40:08;;;;;;;17.27;9.35;;;13.00;99.90;;;;;;4053355;29;20253;-91
2023/04/08 08:42:21;;;;;;;18.95;9.23;;;13.50;99.90;;;;;;4052845;29;20180;-92
2023/04/08 08:44:22;;;;;;;19.50;10.38;;;13.10;99.90;;;;;;4053159;29;20185;-91
2023/04/08 08:46:23;;;;;;;19.73;10.38;;;13.00;99.90;;;;;;4053641;29;20232;-91
2023/04/08 08:48:24;;;;;;;21.33;12.98;;;13.20;99.90;;;;;;4053622;29;20284;-91
2023/04/08 08:50:24;;;;;;;20.88;12.90;;;13.00;99.90;;;;;;4053344;29;20216;-90
2023/04/08 08:52:25;;;;;;;23.50;13.50;;;12.70;99.90;;;;;;4053611;29;20172;-91
2023/04/08 08:54:26;;;;;;;27.52;12.35;;;13.10;99.90;;;;;;4053213;29;20185;-91
2023/04/08 08:56:27;;;;;;;24.45;11.85;;;12.90;99.90;;;;;;4053056;29;20176;-91
2023/04/08 08:58:28;;;;;;;26.70;11.55;;;12.60;99.90;;;;;;4052927;29;20220;-91
2023/04/08 09:00:41;;;;;;;21.85;11.57;;;12.50;99.90;;;;;;4052978;29;20209;-91
2023/04/08 09:02:43;;;;;;;23.70;12.40;;;12.40;99.90;;;;;;4053129;29;20200;-91
2023/04/08 09:04:59;;;;;;;23.65;11.35;;;12.50;99.90;;;;;;4053168;29;20200;-91
2023/04/08 09:07:12;;;;;;;25.65;11.98;;;12.00;99.90;;;;;;4068409;29;20184;-91
2023/04/08 09:09:13;;;;;;;17.98;11.02;;;12.20;99.90;;;;;;4068601;29;20175;-92
2023/04/08 09:11:16;;;;;;;26.73;13.20;;;12.50;99.90;;;;;;4053123;29;20177;-92
2023/04/08 09:13:16;;;;;;;25.80;13.45;;;12.70;99.90;;;;;;4052769;29;20204;-90
2023/04/08 09:15:18;;;;;;;30.13;14.48;;;12.90;99.90;;;;;;4053168;29;20215;-90
2023/04/08 09:17:34;;;;;;;20.63;12.15;;;13.00;99.90;;;;;;4037869;29;20178;-90
2023/04/08 09:19:36;;;;;;;26.58;12.82;;;12.90;99.90;;;;;;4053795;29;20196;-91
2023/04/08 09:21:39;;;;;;;21.40;12.98;;;12.50;99.90;;;;;;4037363;29;20643;-90
2023/04/08 09:23:45;;;;;;;24.83;13.70;;;12.40;99.90;;;;;;4052783;29;20280;-92
2023/04/08 09:25:45;;;;;;;22.13;12.38;;;12.50;99.90;;;;;;4053051;29;20229;-89
2023/04/08 09:27:46;;;;;;;24.45;12.05;;;12.10;99.90;;;;;;4052912;29;20181;-91
2023/04/08 09:29:47;;;;;;;25.55;12.43;;;12.10;99.90;;;;;;4037631;29;20196;-89
2023/04/08 09:31:53;;;;;;;24.77;13.95;;;12.00;99.90;;;;;;4037756;29;20276;-91
2023/04/08 09:33:59;;;;;;;20.92;13.57;;;12.00;99.90;;;;;;4068993;29;20798;-91
2023/04/08 09:36:00;;;;;;;25.58;12.73;;;12.10;99.90;;;;;;4037849;29;20562;-91
2023/04/08 09:38:01;;;;;;;23.05;14.07;;;12.20;99.90;;;;;;4052748;29;20307;-92
2023/04/08 09:40:02;;;;;;;25.85;15.10;;;12.10;99.90;;;;;;4052904;29;20269;-91
2023/04/08 09:42:07;;;;;;;25.60;14.45;;;12.30;99.90;;;;;;4052689;29;20180;-92
2023/04/08 09:44:09;;;;;;;27.10;16.05;;;12.40;99.90;;;;;;4037283;29;20289;-91
2023/04/08 09:46:11;;;;;;;28.48;16.10;;;12.40;99.90;;;;;;4052848;29;20259;-92
2023/04/08 09:48:18;;;;;;;25.40;15.02;;;12.70;99.90;;;;;;4052663;29;20189;-92
2023/04/08 09:50:29;;;;;;;23.33;13.90;;;12.50;99.90;;;;;;4052685;29;20181;-91
2023/04/08 09:52:35;;;;;;;27.02;14.10;;;12.20;99.90;;;;;;4054397;29;20257;-93
2023/04/08 09:55:10;;;;;;;21.65;13.38;;;12.50;99.90;;;;;;4053819;29;20189;-92
2023/04/08 09:57:24;;;;;;;26.73;14.85;;;12.70;99.90;;;;;;4040018;29;20181;-91
2023/04/08 09:59:28;;;;;;;26.77;15.88;;;13.10;99.90;;;;;;4055912;29;20300;-92
2023/04/08 10:01:38;;;;;;;35.63;16.13;;;13.30;99.90;;;;;;4055758;29;20207;-91
2023/04/08 10:03:48;;;;;;;30.92;17.10;;;13.30;99.90;;;;;;4055714;29;20256;-91
2023/04/08 10:05:51;;;;;;;26.10;13.95;;;12.90;99.90;;;;;;4057524;29;20180;-91
2023/04/08 10:07:54;;;;;;;23.88;14.55;;;12.80;99.90;;;;;;4040007;29;20233;-91
2023/04/08 10:09:56;;;;;;;27.58;16.95;;;12.80;99.90;;;;;;4039961;29;20635;-92
2023/04/08 10:11:58;;;;;;;35.35;18.35;;;13.00;99.90;;;;;;4039790;29;20217;-92
2023/04/08 10:13:59;;;;;;;22.63;15.00;;;13.10;99.90;;;;;;4039778;29;20696;-92
2023/04/08 10:16:27;;;;;;;27.15;13.85;;;13.00;99.90;;;;;;4040332;29;20178;-92
2023/04/08 10:18:32;;;;;;;22.05;13.60;;;12.60;99.90;;;;;;4055394;29;20216;-92
2023/04/08 10:20:35;;;;;;;29.70;15.15;;;12.50;99.90;;;;;;4039772;29;20230;-91
2023/04/08 10:22:47;;;;;;;25.10;13.80;;;12.80;99.90;;;;;;4055301;29;20205;-92
2023/04/08 10:25:16;;;;;;;25.15;13.40;;;12.80;99.90;;;;;;4055389;29;20177;-93
2023/04/08 10:27:42;;;;;;;22.85;11.98;;;13.00;99.90;;;;;;4054952;29;20188;-92